createdAt,value
2018-07-02T00:00:22.256Z,15.54
2018-07-02T00:01:22.195Z,15.56
2018-07-02T00:02:22.133Z,15.54
2018-07-02T00:03:22.072Z,15.48
2018-07-02T00:04:22.009Z,15.40
2018-07-02T00:05:21.950Z,15.43
2018-07-02T00:06:21.882Z,15.36
2018-07-02T00:07:21.824Z,15.35
2018-07-02T00:08:21.770Z,15.33
2018-07-02T00:09:21.698Z,15.40
2018-07-02T00:10:21.640Z,15.36
2018-07-02T00:11:21.578Z,15.44
2018-07-02T00:12:21.515Z,15.41
2018-07-02T00:13:21.455Z,15.33
2018-07-02T00:14:21.390Z,15.40
2018-07-02T00:15:21.331Z,15.35
2018-07-02T00:16:21.271Z,15.40
2018-07-02T00:17:21.206Z,15.38
2018-07-02T00:18:21.142Z,15.35
2018-07-02T00:19:21.082Z,15.32
2018-07-02T00:20:21.020Z,15.30
2018-07-02T00:21:20.958Z,15.36
2018-07-02T00:22:20.896Z,15.36
2018-07-02T00:23:20.839Z,15.33
2018-07-02T00:24:20.772Z,15.33
2018-07-02T00:25:20.714Z,15.32
2018-07-02T00:26:20.653Z,15.30
2018-07-02T00:27:20.589Z,15.29
2018-07-02T00:28:20.527Z,15.26
2018-07-02T00:29:20.468Z,15.33
2018-07-02T00:30:20.404Z,15.26
2018-07-02T00:31:20.338Z,15.29
2018-07-02T00:32:20.279Z,15.25
2018-07-02T00:33:20.216Z,15.22
2018-07-02T00:34:20.156Z,15.25
2018-07-02T00:35:20.092Z,15.12
2018-07-02T00:36:20.034Z,15.19
2018-07-02T00:37:19.970Z,15.07
2018-07-02T00:38:19.909Z,15.12
2018-07-02T00:39:19.849Z,15.15
2018-07-02T00:40:19.805Z,15.12
2018-07-02T00:41:19.733Z,15.05
2018-07-02T00:42:19.715Z,15.07
2018-07-02T00:43:19.735Z,14.97
2018-07-02T00:44:19.535Z,14.93
2018-07-02T00:45:19.473Z,14.95
2018-07-02T00:46:19.411Z,14.99
2018-07-02T00:47:19.350Z,14.97
2018-07-02T00:48:19.289Z,15.01
2018-07-02T00:49:19.228Z,15.07
2018-07-02T00:50:19.165Z,15.10
2018-07-02T00:51:19.102Z,15.01
2018-07-02T00:52:19.040Z,15.05
2018-07-02T00:53:18.980Z,15.05
2018-07-02T00:54:18.916Z,14.96
2018-07-02T00:55:18.853Z,14.99
2018-07-02T00:56:18.793Z,14.97
2018-07-02T00:57:18.732Z,14.95
2018-07-02T00:58:18.669Z,14.97
2018-07-02T00:59:18.605Z,14.70
2018-07-02T01:00:18.544Z,14.79
2018-07-02T01:01:18.480Z,14.69
2018-07-02T01:02:18.422Z,14.67
2018-07-02T01:03:18.358Z,14.71
2018-07-02T01:04:18.295Z,14.74
2018-07-02T01:05:18.238Z,14.70
2018-07-02T01:06:18.171Z,14.83
2018-07-02T01:07:18.107Z,14.74
2018-07-02T01:08:18.050Z,14.74
2018-07-02T01:09:17.987Z,14.71
2018-07-02T01:10:17.925Z,14.70
2018-07-02T01:11:17.863Z,14.61
2018-07-02T01:12:17.801Z,14.67
2018-07-02T01:13:17.743Z,14.59
2018-07-02T01:14:17.675Z,14.61
2018-07-02T01:15:17.614Z,14.63
2018-07-02T01:16:17.553Z,14.61
2018-07-02T01:17:17.490Z,14.58
2018-07-02T01:18:17.429Z,14.59
2018-07-02T01:19:17.370Z,14.51
2018-07-02T01:20:17.304Z,14.56
2018-07-02T01:21:17.243Z,14.55
2018-07-02T01:22:17.180Z,14.58
2018-07-02T01:23:17.117Z,14.59
2018-07-02T01:24:17.055Z,14.58
2018-07-02T01:25:16.995Z,14.61
2018-07-02T01:26:16.933Z,14.56
2018-07-02T01:27:16.870Z,14.51
2018-07-02T01:28:16.807Z,14.38
2018-07-02T01:29:16.746Z,14.46
2018-07-02T01:30:16.685Z,14.46
2018-07-02T01:31:16.623Z,14.51
2018-07-02T01:32:16.558Z,14.36
2018-07-02T01:33:16.542Z,14.36
2018-07-02T01:34:16.434Z,14.31
2018-07-02T01:35:16.375Z,14.36
2018-07-02T01:36:16.311Z,14.41
2018-07-02T01:37:16.251Z,14.46
2018-07-02T01:38:16.189Z,14.44
2018-07-02T01:39:16.124Z,14.34
2018-07-02T01:40:16.062Z,14.33
2018-07-02T01:41:16.001Z,14.26
2018-07-02T01:42:15.937Z,14.28
2018-07-02T01:43:15.876Z,14.21
2018-07-02T01:44:15.813Z,14.27
2018-07-02T01:45:15.757Z,14.13
2018-07-02T01:46:15.688Z,14.12
2018-07-02T01:47:15.628Z,14.04
2018-07-02T01:48:15.566Z,14.01
2018-07-02T01:49:15.504Z,14.05
2018-07-02T01:50:15.441Z,13.88
2018-07-02T01:51:15.376Z,13.86
2018-07-02T01:52:15.315Z,13.86
2018-07-02T01:53:15.256Z,14.00
2018-07-02T01:54:15.191Z,14.09
2018-07-02T01:55:15.129Z,14.05
2018-07-02T01:56:15.068Z,14.04
2018-07-02T01:57:15.006Z,14.04
2018-07-02T01:58:14.942Z,14.03
2018-07-02T01:59:14.876Z,14.01
2018-07-02T02:00:14.819Z,14.00
2018-07-02T02:01:14.755Z,14.05
2018-07-02T02:02:14.692Z,14.04
2018-07-02T02:03:14.631Z,14.04
2018-07-02T02:04:14.568Z,14.05
2018-07-02T02:05:14.506Z,14.09
2018-07-02T02:06:14.444Z,14.01
2018-07-02T02:07:14.386Z,14.01
2018-07-02T02:08:14.318Z,13.98
2018-07-02T02:09:14.257Z,14.01
2018-07-02T02:10:14.193Z,13.85
2018-07-02T02:11:14.134Z,13.93
2018-07-02T02:12:14.072Z,13.86
2018-07-02T02:13:14.010Z,13.91
2018-07-02T02:14:13.946Z,13.86
2018-07-02T02:15:13.884Z,13.93
2018-07-02T02:16:13.821Z,13.82
2018-07-02T02:17:13.760Z,13.79
2018-07-02T02:18:13.698Z,13.78
2018-07-02T02:19:13.635Z,13.78
2018-07-02T02:20:13.572Z,13.82
2018-07-02T02:21:13.513Z,13.75
2018-07-02T02:22:13.447Z,13.71
2018-07-02T02:23:13.383Z,13.75
2018-07-02T02:24:13.324Z,13.85
2018-07-02T02:25:13.262Z,13.83
2018-07-02T02:26:13.198Z,13.80
2018-07-02T02:27:13.134Z,13.86
2018-07-02T02:28:13.071Z,13.90
2018-07-02T02:29:13.011Z,13.86
2018-07-02T02:30:12.949Z,13.93
2018-07-02T02:31:12.887Z,13.93
2018-07-02T02:32:12.825Z,13.82
2018-07-02T02:33:12.762Z,13.82
2018-07-02T02:34:12.700Z,13.82
2018-07-02T02:35:12.638Z,13.68
2018-07-02T02:36:12.575Z,13.75
2018-07-02T02:37:12.513Z,13.72
2018-07-02T02:38:12.473Z,13.78
2018-07-02T02:39:12.398Z,13.64
2018-07-02T02:40:12.325Z,13.68
2018-07-02T02:41:12.263Z,13.80
2018-07-02T02:42:12.199Z,13.82
2018-07-02T02:43:12.143Z,13.72
2018-07-02T02:44:12.076Z,13.64
2018-07-02T02:45:12.014Z,13.65
2018-07-02T02:46:11.951Z,13.58
2018-07-02T02:47:11.887Z,13.60
2018-07-02T02:48:11.825Z,13.64
2018-07-02T02:49:11.765Z,13.55
2018-07-02T02:50:11.704Z,13.53
2018-07-02T02:51:11.639Z,13.40
2018-07-02T02:52:11.580Z,13.35
2018-07-02T02:53:11.514Z,13.40
2018-07-02T02:54:11.452Z,13.30
2018-07-02T02:55:11.390Z,13.38
2018-07-02T02:56:11.328Z,13.30
2018-07-02T02:57:11.265Z,13.17
2018-07-02T02:58:11.202Z,13.19
2018-07-02T02:59:11.139Z,13.05
2018-07-02T03:00:11.078Z,12.91
2018-07-02T03:01:11.017Z,12.93
2018-07-02T03:02:10.953Z,12.87
2018-07-02T03:03:10.889Z,12.87
2018-07-02T03:04:10.829Z,12.80
2018-07-02T03:05:10.766Z,12.83
2018-07-02T03:06:10.703Z,12.95
2018-07-02T03:07:10.641Z,12.84
2018-07-02T03:08:10.579Z,12.88
2018-07-02T03:09:10.516Z,12.76
2018-07-02T03:10:10.456Z,12.83
2018-07-02T03:11:10.394Z,12.77
2018-07-02T03:12:10.328Z,12.80
2018-07-02T03:13:10.267Z,12.69
2018-07-02T03:14:10.204Z,12.66
2018-07-02T03:15:10.143Z,12.80
2018-07-02T03:16:10.080Z,12.71
2018-07-02T03:17:10.021Z,12.63
2018-07-02T03:18:09.954Z,12.54
2018-07-02T03:19:09.891Z,12.53
2018-07-02T03:20:09.829Z,12.53
2018-07-02T03:21:09.769Z,12.51
2018-07-02T03:22:09.707Z,12.51
2018-07-02T03:23:09.642Z,12.41
2018-07-02T03:24:09.580Z,12.36
2018-07-02T03:25:09.526Z,12.38
2018-07-02T03:26:09.453Z,12.35
2018-07-02T03:27:09.387Z,12.38
2018-07-02T03:28:09.328Z,12.33
2018-07-02T03:29:09.267Z,12.41
2018-07-02T03:30:09.207Z,12.47
2018-07-02T03:31:09.139Z,12.46
2018-07-02T03:32:09.079Z,12.48
2018-07-02T03:33:09.017Z,12.50
2018-07-02T03:34:08.952Z,12.51
2018-07-02T03:35:08.892Z,12.59
2018-07-02T03:36:08.869Z,12.51
2018-07-02T03:37:08.767Z,12.46
2018-07-02T03:38:08.703Z,12.47
2018-07-02T03:39:08.641Z,12.47
2018-07-02T03:40:08.577Z,12.36
2018-07-02T03:41:08.516Z,12.35
2018-07-02T03:42:08.454Z,12.36
2018-07-02T03:43:08.392Z,12.22
2018-07-02T03:44:08.331Z,12.35
2018-07-02T03:45:08.265Z,12.30
2018-07-02T03:46:08.204Z,12.30
2018-07-02T03:47:08.139Z,12.36
2018-07-02T03:48:08.079Z,12.26
2018-07-02T03:49:08.016Z,12.25
2018-07-02T03:50:07.953Z,12.23
2018-07-02T03:51:07.888Z,12.13
2018-07-02T03:52:07.840Z,12.23
2018-07-02T03:53:07.764Z,12.17
2018-07-02T03:54:07.700Z,12.25
2018-07-02T03:55:07.638Z,12.25
2018-07-02T03:56:07.576Z,12.22
2018-07-02T03:57:07.513Z,12.23
2018-07-02T03:58:07.451Z,12.22
2018-07-02T03:59:07.395Z,12.25
2018-07-02T04:00:07.322Z,12.14
2018-07-02T04:01:07.286Z,12.23
2018-07-02T04:02:07.210Z,12.14
2018-07-02T04:03:07.137Z,12.23
2018-07-02T04:04:07.074Z,12.10
2018-07-02T04:05:07.016Z,12.11
2018-07-02T04:06:06.948Z,12.25
2018-07-02T04:07:06.886Z,12.21
2018-07-02T04:08:06.824Z,12.23
2018-07-02T04:09:06.761Z,12.15
2018-07-02T04:10:06.701Z,12.22
2018-07-02T04:11:06.636Z,12.25
2018-07-02T04:12:06.610Z,12.22
2018-07-02T04:13:06.537Z,12.15
2018-07-02T04:14:06.447Z,12.22
2018-07-02T04:15:06.385Z,12.32
2018-07-02T04:16:06.323Z,12.38
2018-07-02T04:17:06.260Z,12.43
2018-07-02T04:18:06.197Z,12.46
2018-07-02T04:19:06.134Z,12.43
2018-07-02T04:20:06.072Z,12.48
2018-07-02T04:21:06.011Z,12.50
2018-07-02T04:22:05.946Z,12.47
2018-07-02T04:23:05.884Z,12.55
2018-07-02T04:24:05.823Z,12.55
2018-07-02T04:25:05.762Z,12.50
2018-07-02T04:26:05.696Z,12.54
2018-07-02T04:27:05.632Z,12.59
2018-07-02T04:28:05.570Z,12.59
2018-07-02T04:29:05.508Z,12.58
2018-07-02T04:30:05.445Z,12.63
2018-07-02T04:31:05.383Z,12.65
2018-07-02T04:32:05.321Z,12.62
2018-07-02T04:33:05.256Z,12.61
2018-07-02T04:34:05.197Z,12.73
2018-07-02T04:35:05.131Z,12.71
2018-07-02T04:36:05.072Z,12.68
2018-07-02T04:37:05.007Z,12.76
2018-07-02T04:38:04.944Z,12.76
2018-07-02T04:39:04.882Z,12.87
2018-07-02T04:40:04.819Z,12.99
2018-07-02T04:41:04.756Z,13.04
2018-07-02T04:42:04.694Z,12.96
2018-07-02T04:43:04.635Z,13.09
2018-07-02T04:44:04.570Z,13.04
2018-07-02T04:45:04.536Z,13.19
2018-07-02T04:46:04.442Z,13.14
2018-07-02T04:47:04.381Z,13.13
2018-07-02T04:48:04.317Z,13.24
2018-07-02T04:49:04.258Z,13.23
2018-07-02T04:50:04.192Z,13.29
2018-07-02T04:51:04.173Z,13.29
2018-07-02T04:52:04.068Z,13.26
2018-07-02T04:53:04.006Z,13.35
2018-07-02T04:54:03.947Z,13.38
2018-07-02T04:55:03.882Z,13.54
2018-07-02T04:56:03.820Z,13.46
2018-07-02T04:57:03.756Z,13.53
2018-07-02T04:58:03.691Z,13.46
2018-07-02T04:59:03.627Z,13.47
2018-07-02T05:00:03.568Z,13.51
2018-07-02T05:01:03.506Z,13.47
2018-07-02T05:02:03.441Z,13.55
2018-07-02T05:03:03.380Z,13.61
2018-07-02T05:04:03.319Z,13.63
2018-07-02T05:05:03.254Z,13.65
2018-07-02T05:06:03.191Z,13.63
2018-07-02T05:07:03.130Z,13.63
2018-07-02T05:08:03.067Z,13.73
2018-07-02T05:09:03.005Z,13.64
2018-07-02T05:10:02.941Z,13.73
2018-07-02T05:11:02.879Z,13.76
2018-07-02T05:12:02.817Z,13.80
2018-07-02T05:13:02.760Z,13.88
2018-07-02T05:14:02.692Z,13.90
2018-07-02T05:15:02.630Z,13.98
2018-07-02T05:16:02.568Z,13.94
2018-07-02T05:17:02.559Z,13.98
2018-07-02T05:18:02.442Z,14.08
2018-07-02T05:19:02.382Z,14.18
2018-07-02T05:20:02.320Z,14.12
2018-07-02T05:21:02.258Z,14.19
2018-07-02T05:22:02.195Z,14.22
2018-07-02T05:23:02.131Z,14.28
2018-07-02T05:24:02.070Z,14.30
2018-07-02T05:25:02.011Z,14.28
2018-07-02T05:26:01.944Z,14.34
2018-07-02T05:27:01.880Z,14.28
2018-07-02T05:28:01.818Z,14.34
2018-07-02T05:29:01.754Z,14.45
2018-07-02T05:30:01.696Z,14.36
2018-07-02T05:31:01.631Z,14.38
2018-07-02T05:32:01.572Z,14.44
2018-07-02T05:33:01.509Z,14.36
2018-07-02T05:34:01.444Z,14.46
2018-07-02T05:35:01.385Z,14.48
2018-07-02T05:36:01.321Z,14.53
2018-07-02T05:37:01.260Z,14.59
2018-07-02T05:38:01.195Z,14.51
2018-07-02T05:39:01.134Z,14.64
2018-07-02T05:40:01.071Z,14.64
2018-07-02T05:41:01.010Z,14.69
2018-07-02T05:42:00.947Z,14.63
2018-07-02T05:43:00.886Z,14.64
2018-07-02T05:44:00.822Z,14.59
2018-07-02T05:45:00.761Z,14.59
2018-07-02T05:46:00.697Z,14.63
2018-07-02T05:47:00.636Z,14.56
2018-07-02T05:48:00.578Z,14.73
2018-07-02T05:49:00.514Z,14.83
2018-07-02T05:50:00.461Z,14.93
2018-07-02T05:51:00.388Z,14.93
2018-07-02T05:52:00.323Z,14.99
2018-07-02T05:53:00.262Z,14.99
2018-07-02T05:54:00.200Z,15.04
2018-07-02T05:55:00.168Z,15.17
2018-07-02T05:56:00.076Z,15.07
2018-07-02T05:57:00.019Z,15.05
2018-07-02T05:57:59.953Z,15.05
2018-07-02T05:58:59.889Z,15.07
2018-07-02T05:59:59.827Z,15.07
2018-07-02T06:00:59.771Z,15.14
2018-07-02T06:01:59.703Z,15.11
2018-07-02T06:02:59.642Z,15.12
2018-07-02T06:03:59.578Z,15.23
2018-07-02T06:04:59.521Z,15.33
2018-07-02T06:05:59.455Z,15.33
2018-07-02T06:06:59.392Z,15.35
2018-07-02T06:07:59.410Z,15.50
2018-07-02T06:08:59.331Z,15.48
2018-07-02T06:09:59.207Z,15.40
2018-07-02T06:10:59.148Z,15.43
2018-07-02T06:11:59.083Z,15.56
2018-07-02T06:12:59.022Z,15.51
2018-07-02T06:13:58.957Z,15.62
2018-07-02T06:14:58.900Z,15.76
2018-07-02T06:15:58.836Z,15.78
2018-07-02T06:16:58.771Z,15.87
2018-07-02T06:17:58.713Z,15.98
2018-07-02T06:18:58.650Z,16.08
2018-07-02T06:19:58.585Z,16.06
2018-07-02T06:20:58.526Z,16.08
2018-07-02T06:21:58.465Z,16.06
2018-07-02T06:22:58.403Z,16.13
2018-07-02T06:23:58.339Z,16.00
2018-07-02T06:24:58.278Z,16.16
2018-07-02T06:25:58.218Z,16.17
2018-07-02T06:26:58.151Z,16.24
2018-07-02T06:27:58.093Z,16.25
2018-07-02T06:28:58.030Z,16.26
2018-07-02T06:29:57.969Z,16.39
2018-07-02T06:30:57.907Z,16.29
2018-07-02T06:31:57.846Z,16.26
2018-07-02T06:32:57.785Z,16.28
2018-07-02T06:33:57.722Z,16.36
2018-07-02T06:34:57.661Z,16.34
2018-07-02T06:35:57.600Z,16.34
2018-07-02T06:36:57.538Z,16.47
2018-07-02T06:37:57.476Z,16.49
2018-07-02T06:38:57.414Z,16.59
2018-07-02T06:39:57.355Z,16.61
2018-07-02T06:40:57.293Z,16.59
2018-07-02T06:41:57.244Z,16.72
2018-07-02T06:42:57.167Z,16.67
2018-07-02T06:43:57.107Z,16.72
2018-07-02T06:44:57.045Z,16.77
2018-07-02T06:45:56.983Z,16.76
2018-07-02T06:46:56.921Z,16.80
2018-07-02T06:47:56.866Z,16.79
2018-07-02T06:48:56.803Z,16.83
2018-07-02T06:49:56.737Z,16.88
2018-07-02T06:50:56.677Z,16.98
2018-07-02T06:51:56.618Z,17.01
2018-07-02T06:52:56.554Z,17.14
2018-07-02T06:53:56.496Z,17.07
2018-07-02T06:54:56.435Z,17.07
2018-07-02T06:55:56.393Z,17.22
2018-07-02T06:56:56.309Z,17.27
2018-07-02T06:57:56.262Z,17.41
2018-07-02T06:58:56.244Z,17.50
2018-07-02T06:59:56.125Z,17.65
2018-07-02T07:00:56.117Z,17.73
2018-07-02T07:01:56.003Z,17.84
2018-07-02T07:02:55.943Z,17.79
2018-07-02T07:03:55.881Z,17.83
2018-07-02T07:04:55.821Z,18.02
2018-07-02T07:05:55.759Z,18.09
2018-07-02T07:06:55.700Z,18.24
2018-07-02T07:07:55.640Z,18.26
2018-07-02T07:08:55.577Z,18.21
2018-07-02T07:09:55.515Z,18.17
2018-07-02T07:10:55.455Z,18.03
2018-07-02T07:11:55.392Z,18.05
2018-07-02T07:12:55.334Z,18.23
2018-07-02T07:13:55.269Z,18.28
2018-07-02T07:14:55.211Z,18.34
2018-07-02T07:15:55.150Z,18.39
2018-07-02T07:16:55.089Z,18.54
2018-07-02T07:17:55.038Z,18.71
2018-07-02T07:18:54.968Z,18.82
2018-07-02T07:19:54.907Z,18.78
2018-07-02T07:20:54.850Z,18.82
2018-07-02T07:21:54.785Z,18.83
2018-07-02T07:22:54.723Z,18.81
2018-07-02T07:23:54.665Z,18.76
2018-07-02T07:24:54.603Z,18.66
2018-07-02T07:25:54.545Z,18.61
2018-07-02T07:26:54.481Z,18.56
2018-07-02T07:27:54.427Z,18.54
2018-07-02T07:28:54.419Z,18.64
2018-07-02T07:29:54.302Z,18.66
2018-07-02T07:30:54.239Z,18.82
2018-07-02T07:31:54.187Z,18.85
2018-07-02T07:32:54.119Z,18.88
2018-07-02T07:33:54.058Z,18.83
2018-07-02T07:34:54.004Z,18.85
2018-07-02T07:35:53.939Z,18.79
2018-07-02T07:36:53.879Z,18.86
2018-07-02T07:37:53.816Z,18.89
2018-07-02T07:38:53.756Z,19.00
2018-07-02T07:39:53.695Z,19.13
2018-07-02T07:40:53.638Z,19.17
2018-07-02T07:41:53.575Z,19.31
2018-07-02T07:42:53.515Z,19.22
2018-07-02T07:43:53.455Z,19.35
2018-07-02T07:44:53.454Z,19.31
2018-07-02T07:45:53.335Z,19.38
2018-07-02T07:46:53.282Z,19.54
2018-07-02T07:47:53.216Z,19.70
2018-07-02T07:48:53.154Z,19.71
2018-07-02T07:49:53.093Z,19.82
2018-07-02T07:50:53.034Z,19.96
2018-07-02T07:51:52.976Z,20.09
2018-07-02T07:52:52.916Z,20.18
2018-07-02T07:53:52.857Z,20.17
2018-07-02T07:54:52.798Z,20.07
2018-07-02T07:55:52.734Z,20.02
2018-07-02T07:56:52.675Z,19.90
2018-07-02T07:57:52.620Z,19.82
2018-07-02T07:58:52.554Z,19.75
2018-07-02T07:59:52.493Z,20.08
2018-07-02T08:00:52.437Z,20.22
2018-07-02T08:01:52.375Z,20.34
2018-07-02T08:02:52.315Z,20.37
2018-07-02T08:03:52.255Z,20.39
2018-07-02T08:04:52.197Z,20.49
2018-07-02T08:05:52.138Z,20.39
2018-07-02T08:06:52.075Z,20.36
2018-07-02T08:07:52.023Z,20.52
2018-07-02T08:08:51.959Z,20.58
2018-07-02T08:09:51.896Z,20.58
2018-07-02T08:10:51.838Z,20.70
2018-07-02T08:11:51.779Z,20.70
2018-07-02T08:12:51.717Z,20.73
2018-07-02T08:13:51.657Z,20.83
2018-07-02T08:14:51.599Z,20.83
2018-07-02T08:15:51.543Z,20.79
2018-07-02T08:16:51.478Z,20.79
2018-07-02T08:17:51.425Z,20.75
2018-07-02T08:18:51.365Z,20.73
2018-07-02T08:19:51.304Z,20.70
2018-07-02T08:20:51.242Z,20.79
2018-07-02T08:21:51.187Z,20.95
2018-07-02T08:22:51.122Z,21.07
2018-07-02T08:23:51.092Z,21.01
2018-07-02T08:24:51.004Z,21.29
2018-07-02T08:25:50.947Z,21.44
2018-07-02T08:26:50.886Z,21.43
2018-07-02T08:27:50.827Z,21.45
2018-07-02T08:28:50.768Z,21.47
2018-07-02T08:29:50.709Z,21.48
2018-07-02T08:30:50.648Z,21.55
2018-07-02T08:31:50.586Z,21.41
2018-07-02T08:32:50.586Z,21.30
2018-07-02T08:33:50.470Z,21.29
2018-07-02T08:34:50.417Z,21.44
2018-07-02T08:35:50.354Z,21.58
2018-07-02T08:36:50.294Z,21.80
2018-07-02T08:37:50.236Z,21.82
2018-07-02T08:38:50.182Z,21.93
2018-07-02T08:39:50.117Z,22.16
2018-07-02T08:40:50.058Z,22.33
2018-07-02T08:41:49.999Z,22.36
2018-07-02T08:42:49.941Z,22.30
2018-07-02T08:43:49.885Z,22.27
2018-07-02T08:44:49.825Z,22.21
2018-07-02T08:45:49.765Z,22.04
2018-07-02T08:46:49.752Z,21.93
2018-07-02T08:47:49.645Z,21.97
2018-07-02T08:48:49.592Z,22.00
2018-07-02T08:49:49.529Z,22.09
2018-07-02T08:50:49.472Z,22.03
2018-07-02T08:51:49.414Z,22.06
2018-07-02T08:52:49.424Z,22.30
2018-07-02T08:53:49.294Z,22.38
2018-07-02T08:54:49.236Z,22.64
2018-07-02T08:55:49.177Z,22.68
2018-07-02T08:56:49.118Z,22.73
2018-07-02T08:57:49.062Z,22.83
2018-07-02T08:58:49.004Z,22.98
2018-07-02T08:59:48.943Z,23.10
2018-07-02T09:00:48.887Z,23.29
2018-07-02T09:01:48.827Z,23.21
2018-07-02T09:02:48.769Z,23.13
2018-07-02T09:03:48.710Z,23.13
2018-07-02T09:04:48.653Z,23.28
2018-07-02T09:05:48.594Z,23.51
2018-07-02T09:06:48.543Z,23.73
2018-07-02T09:07:48.480Z,23.70
2018-07-02T09:08:48.424Z,23.70
2018-07-02T09:09:48.363Z,23.73
2018-07-02T09:10:48.304Z,23.91
2018-07-02T09:11:48.246Z,24.19
2018-07-02T09:12:48.190Z,24.44
2018-07-02T09:13:48.132Z,24.70
2018-07-02T09:14:48.135Z,25.00
2018-07-02T09:15:48.017Z,25.12
2018-07-02T09:16:47.959Z,25.09
2018-07-02T09:17:47.954Z,25.40
2018-07-02T09:18:47.845Z,25.64
2018-07-02T09:19:47.789Z,25.95
2018-07-02T09:20:47.735Z,26.43
2018-07-02T09:21:47.674Z,26.71
2018-07-02T09:22:47.619Z,27.05
2018-07-02T09:23:47.575Z,27.17
2018-07-02T09:24:47.505Z,27.58
2018-07-02T09:25:47.450Z,28.20
2018-07-02T09:26:47.395Z,28.66
2018-07-02T09:27:47.339Z,28.74
2018-07-02T09:28:47.285Z,29.17
2018-07-02T09:29:47.229Z,29.15
2018-07-02T09:30:47.178Z,29.44
2018-07-02T09:31:47.122Z,29.73
2018-07-02T09:32:47.070Z,30.03
2018-07-02T09:33:47.015Z,29.68
2018-07-02T09:34:46.961Z,29.40
2018-07-02T09:35:46.911Z,29.10
2018-07-02T09:36:46.861Z,29.00
2018-07-02T09:37:46.803Z,28.75
2018-07-02T09:38:46.753Z,28.83
2018-07-02T09:39:46.702Z,28.94
2018-07-02T09:40:46.652Z,29.36
2018-07-02T09:41:46.597Z,29.54
2018-07-02T09:42:46.547Z,29.92
2018-07-02T09:43:46.682Z,30.36
2018-07-02T09:44:46.445Z,30.02
2018-07-02T09:45:46.392Z,29.86
2018-07-02T09:46:46.376Z,29.89
2018-07-02T09:47:46.293Z,29.76
2018-07-02T09:48:46.241Z,30.13
2018-07-02T09:49:46.223Z,29.40
2018-07-02T09:50:46.206Z,29.37
2018-07-02T09:51:46.110Z,29.40
2018-07-02T09:52:46.048Z,29.18
2018-07-02T09:53:46.036Z,28.80
2018-07-02T09:54:45.952Z,28.75
2018-07-02T09:55:45.893Z,28.65
2018-07-02T09:56:45.842Z,28.68
2018-07-02T09:57:45.790Z,28.68
2018-07-02T09:58:45.745Z,29.31
2018-07-02T09:59:45.699Z,29.61
2018-07-02T10:00:45.643Z,29.73
2018-07-02T10:01:45.589Z,29.12
2018-07-02T10:02:45.542Z,29.04
2018-07-02T10:03:45.495Z,29.18
2018-07-02T10:04:45.443Z,29.40
2018-07-02T10:05:45.394Z,29.31
2018-07-02T10:06:45.343Z,28.80
2018-07-02T10:07:45.293Z,28.42
2018-07-02T10:08:45.245Z,28.87
2018-07-02T10:09:45.192Z,28.96
2018-07-02T10:10:45.144Z,29.07
2018-07-02T10:11:45.094Z,28.94
2018-07-02T10:12:45.044Z,29.12
2018-07-02T10:13:44.995Z,29.34
2018-07-02T10:14:44.942Z,29.83
2018-07-02T10:15:44.894Z,30.20
2018-07-02T10:16:44.854Z,30.35
2018-07-02T10:17:44.794Z,29.92
2018-07-02T10:18:44.742Z,29.19
2018-07-02T10:19:44.693Z,28.94
2018-07-02T10:20:44.644Z,28.50
2018-07-02T10:21:44.597Z,28.38
2018-07-02T10:22:44.542Z,28.37
2018-07-02T10:23:44.526Z,28.40
2018-07-02T10:24:44.442Z,28.75
2018-07-02T10:25:44.391Z,28.87
2018-07-02T10:26:44.343Z,28.86
2018-07-02T10:27:44.290Z,28.87
2018-07-02T10:28:44.241Z,28.96
2018-07-02T10:29:44.188Z,29.15
2018-07-02T10:30:44.145Z,29.18
2018-07-02T10:31:44.089Z,29.27
2018-07-02T10:32:44.041Z,28.98
2018-07-02T10:33:43.990Z,29.03
2018-07-02T10:34:43.988Z,29.21
2018-07-02T10:35:43.886Z,29.00
2018-07-02T10:36:43.836Z,29.24
2018-07-02T10:37:43.783Z,29.39
2018-07-02T10:38:43.732Z,29.31
2018-07-02T10:39:43.687Z,28.66
2018-07-02T10:40:43.635Z,28.57
2018-07-02T10:41:43.582Z,28.52
2018-07-02T10:42:43.532Z,28.32
2018-07-02T10:43:43.491Z,28.37
2018-07-02T10:44:43.431Z,28.46
2018-07-02T10:45:43.380Z,28.35
2018-07-02T10:46:43.328Z,27.79
2018-07-02T10:47:43.280Z,28.16
2018-07-02T10:48:43.227Z,28.44
2018-07-02T10:49:43.175Z,28.90
2018-07-02T10:50:43.129Z,29.33
2018-07-02T10:51:43.073Z,29.37
2018-07-02T10:52:43.022Z,29.61
2018-07-02T10:53:42.970Z,29.87
2018-07-02T10:54:42.919Z,29.63
2018-07-02T10:55:42.935Z,29.15
2018-07-02T10:56:42.817Z,28.62
2018-07-02T10:57:42.767Z,28.61
2018-07-02T10:58:42.715Z,28.46
2018-07-02T10:59:42.666Z,28.38
2018-07-02T11:00:42.613Z,28.49
2018-07-02T11:01:42.561Z,28.54
2018-07-02T11:02:42.516Z,28.77
2018-07-02T11:03:42.463Z,28.90
2018-07-02T11:04:42.410Z,28.86
2018-07-02T11:05:42.357Z,28.86
2018-07-02T11:06:42.308Z,28.91
2018-07-02T11:07:42.256Z,28.61
2018-07-02T11:08:42.207Z,28.54
2018-07-02T11:09:42.153Z,28.52
2018-07-02T11:10:42.101Z,28.74
2018-07-02T11:11:42.053Z,28.94
2018-07-02T11:12:42.004Z,29.09
2018-07-02T11:13:41.948Z,28.93
2018-07-02T11:14:41.898Z,28.61
2018-07-02T11:15:41.844Z,28.05
2018-07-02T11:16:41.797Z,27.83
2018-07-02T11:17:41.743Z,27.35
2018-07-02T11:18:41.691Z,26.97
2018-07-02T11:19:41.638Z,26.80
2018-07-02T11:20:41.591Z,26.20
2018-07-02T11:21:41.534Z,25.73
2018-07-02T11:22:41.483Z,25.59
2018-07-02T11:23:41.485Z,25.33
2018-07-02T11:24:41.377Z,25.19
2018-07-02T11:25:41.323Z,25.19
2018-07-02T11:26:41.272Z,25.15
2018-07-02T11:27:41.218Z,25.01
2018-07-02T11:28:41.168Z,24.91
2018-07-02T11:29:41.117Z,24.90
2018-07-02T11:30:41.056Z,24.96
2018-07-02T11:31:41.026Z,24.91
2018-07-02T11:32:40.951Z,25.04
2018-07-02T11:33:40.894Z,25.15
2018-07-02T11:34:40.845Z,25.12
2018-07-02T11:35:40.785Z,25.16
2018-07-02T11:36:40.734Z,25.09
2018-07-02T11:37:40.683Z,25.04
2018-07-02T11:38:40.623Z,25.03
2018-07-02T11:39:40.567Z,25.04
2018-07-02T11:40:40.513Z,25.01
2018-07-02T11:41:40.458Z,25.03
2018-07-02T11:42:40.403Z,24.89
2018-07-02T11:43:40.347Z,24.91
2018-07-02T11:44:40.294Z,24.89
2018-07-02T11:45:40.235Z,24.94
2018-07-02T11:46:40.184Z,24.89
2018-07-02T11:47:40.133Z,24.91
2018-07-02T11:48:40.075Z,24.93
2018-07-02T11:49:40.021Z,24.85
2018-07-02T11:50:39.965Z,24.76
2018-07-02T11:51:39.906Z,24.71
2018-07-02T11:52:39.847Z,24.62
2018-07-02T11:53:39.793Z,24.53
2018-07-02T11:54:39.737Z,24.52
2018-07-02T11:55:39.682Z,24.59
2018-07-02T11:56:39.625Z,24.63
2018-07-02T11:57:39.575Z,24.53
2018-07-02T11:58:39.521Z,24.60
2018-07-02T11:59:39.461Z,24.51
2018-07-02T12:00:39.414Z,24.48
2018-07-02T12:01:39.344Z,24.55
2018-07-02T12:02:39.291Z,24.47
2018-07-02T12:03:39.233Z,24.60
2018-07-02T12:04:39.184Z,24.55
2018-07-02T12:05:39.122Z,24.59
2018-07-02T12:06:39.065Z,24.56
2018-07-02T12:07:39.009Z,24.58
2018-07-02T12:08:38.953Z,24.52
2018-07-02T12:09:38.897Z,24.58
2018-07-02T12:10:38.839Z,24.62
2018-07-02T12:11:38.782Z,24.59
2018-07-02T12:12:38.728Z,24.58
2018-07-02T12:13:38.671Z,24.62
2018-07-02T12:14:38.615Z,24.68
2018-07-02T12:15:38.558Z,24.68
2018-07-02T12:16:38.502Z,24.68
2018-07-02T12:17:38.445Z,24.59
2018-07-02T12:18:38.388Z,24.62
2018-07-02T12:19:38.347Z,24.59
2018-07-02T12:20:38.276Z,24.55
2018-07-02T12:21:38.220Z,24.59
2018-07-02T12:22:38.163Z,24.60
2018-07-02T12:23:38.104Z,24.60
2018-07-02T12:24:38.047Z,24.47
2018-07-02T12:25:38.010Z,24.63
2018-07-02T12:26:37.935Z,24.63
2018-07-02T12:27:37.879Z,24.59
2018-07-02T12:28:37.823Z,24.60
2018-07-02T12:29:37.766Z,24.65
2018-07-02T12:30:37.709Z,24.70
2018-07-02T12:31:37.655Z,24.60
2018-07-02T12:32:37.600Z,24.62
2018-07-02T12:33:37.545Z,24.62
2018-07-02T12:34:37.481Z,24.53
2018-07-02T12:35:37.440Z,24.59
2018-07-02T12:36:37.380Z,24.53
2018-07-02T12:37:37.343Z,24.58
2018-07-02T12:38:37.351Z,24.60
2018-07-02T12:39:37.294Z,24.45
2018-07-02T12:40:37.140Z,24.43
2018-07-02T12:41:37.084Z,24.36
2018-07-02T12:42:37.028Z,24.38
2018-07-02T12:43:36.971Z,24.40
2018-07-02T12:44:36.920Z,24.40
2018-07-02T12:45:36.860Z,24.36
2018-07-02T12:46:36.838Z,24.43
2018-07-02T12:47:36.754Z,24.38
2018-07-02T12:48:36.688Z,24.36
2018-07-02T12:49:36.631Z,24.43
2018-07-02T12:50:36.574Z,24.45
2018-07-02T12:51:36.519Z,24.56